Time;durP1;ratioP1;P1;durP2;ratioP2;P2;SDS_P1;SDS_P2;PMS_P1;PMS_P2;Temp;Humidity;BMP_temperature;BMP_pressure;BME280_temperature;BME280_humidity;BME280_pressure;Samples;Min_cycle;Max_cycle;Signal;HPM_P1;HPM_P2
2022/09/02 00:00:31;;;;;;;2.10;1.52;;;12.50;99.90;;;;;;5085478;28;20059;-69
2022/09/02 00:02:57;;;;;;;3.33;1.65;;;12.40;99.90;;;;;;5089220;28;20114;-69
2022/09/02 00:05:23;;;;;;;2.97;1.65;;;12.40;99.90;;;;;;5086741;28;20032;-69
2022/09/02 00:07:48;;;;;;;3.35;1.60;;;12.30;99.90;;;;;;5091016;28;20051;-69
2022/09/02 00:10:14;;;;;;;2.70;1.60;;;12.40;99.90;;;;;;5083483;28;20048;-69
2022/09/02 00:12:40;;;;;;;2.72;1.58;;;12.30;99.90;;;;;;5089803;28;20048;-69
2022/09/02 00:15:06;;;;;;;2.33;1.60;;;12.30;99.90;;;;;;5078875;28;20071;-69
2022/09/02 00:17:31;;;;;;;3.50;1.50;;;12.20;99.90;;;;;;5065338;28;20048;-69
2022/09/02 00:19:57;;;;;;;2.30;1.65;;;12.10;99.90;;;;;;5072895;28;20129;-68
2022/09/02 00:22:23;;;;;;;3.40;1.50;;;12.00;99.90;;;;;;5073258;28;20059;-68
2022/09/02 00:24:49;;;;;;;4.30;1.30;;;11.80;99.90;;;;;;5087632;28;20064;-69
2022/09/02 00:27:14;;;;;;;2.08;1.70;;;11.80;99.90;;;;;;5053592;28;20044;-68
2022/09/02 00:29:40;;;;;;;4.35;1.92;;;12.00;99.90;;;;;;5074451;28;20047;-68
2022/09/02 00:32:05;;;;;;;3.42;1.92;;;12.00;99.90;;;;;;5069345;28;20044;-69
2022/09/02 00:34:31;;;;;;;3.17;1.38;;;12.00;99.90;;;;;;5068574;28;20059;-69
2022/09/02 00:36:57;;;;;;;2.92;1.60;;;12.00;99.90;;;;;;5065118;28;20512;-69
2022/09/02 00:39:23;;;;;;;3.28;1.52;;;11.90;99.90;;;;;;5065722;28;20040;-68
2022/09/02 00:41:49;;;;;;;2.33;1.42;;;11.80;99.90;;;;;;5086253;28;20052;-68
2022/09/02 00:44:17;;;;;;;2.13;1.75;;;11.80;99.90;;;;;;5073331;28;20036;-68
2022/09/02 00:46:43;;;;;;;3.75;1.75;;;11.70;99.90;;;;;;5081892;28;20493;-68
2022/09/02 00:49:17;;;;;;;5.25;2.15;;;11.70;99.90;;;;;;5071352;28;20104;-69
2022/09/02 00:51:58;;;;;;;2.38;1.80;;;11.70;99.90;;;;;;5067909;28;20052;-69
2022/09/02 00:54:26;;;;;;;1.95;1.75;;;11.70;99.90;;;;;;5065500;28;20044;-69
2022/09/02 00:56:53;;;;;;;3.40;1.58;;;11.60;99.90;;;;;;5077984;28;20505;-69
2022/09/02 00:59:53;;;;;;;2.55;1.65;;;11.70;99.90;;;;;;5065241;28;20052;-69
2022/09/02 01:02:22;;;;;;;2.97;1.58;;;11.70;99.90;;;;;;5071275;28;20055;-69
2022/09/02 01:04:49;;;;;;;2.28;2.00;;;11.60;99.90;;;;;;5058209;28;20084;-69
2022/09/02 01:07:16;;;;;;;2.38;1.65;;;11.70;99.90;;;;;;5067410;28;20049;-68
2022/09/02 01:09:42;;;;;;;4.97;1.67;;;11.60;99.90;;;;;;5067748;28;20068;-68
2022/09/02 01:12:08;;;;;;;5.25;1.95;;;11.60;99.90;;;;;;5066067;28;20048;-68
2022/09/02 01:14:34;;;;;;;3.67;1.90;;;11.60;99.90;;;;;;5085609;28;20476;-69
2022/09/02 01:17:01;;;;;;;2.45;1.73;;;11.70;99.90;;;;;;5065908;28;20059;-69
2022/09/02 01:19:33;;;;;;;3.83;1.90;;;11.60;99.90;;;;;;5070019;28;20074;-69
2022/09/02 01:21:59;;;;;;;3.03;2.20;;;11.70;99.90;;;;;;5083541;28;20040;-69
2022/09/02 01:24:28;;;;;;;2.50;1.63;;;11.80;99.90;;;;;;5063433;28;20071;-68
2022/09/02 01:26:56;;;;;;;2.03;1.67;;;11.60;99.90;;;;;;5083789;28;20048;-69
2022/09/02 01:29:24;;;;;;;3.20;1.77;;;11.60;99.90;;;;;;5067156;28;20053;-69
2022/09/02 01:31:50;;;;;;;1.73;1.50;;;11.70;99.90;;;;;;5048464;28;20049;-69
2022/09/02 01:34:16;;;;;;;4.68;1.90;;;11.60;99.90;;;;;;5087568;28;20072;-69
2022/09/02 01:36:42;;;;;;;3.75;1.92;;;11.60;99.90;;;;;;5083211;28;20056;-69
2022/09/02 01:39:09;;;;;;;4.25;1.58;;;11.60;99.90;;;;;;5062965;28;20048;-69
2022/09/02 01:41:35;;;;;;;2.38;1.70;;;11.50;99.90;;;;;;5067123;28;20048;-68
2022/09/02 01:44:01;;;;;;;2.63;2.10;;;11.50;99.90;;;;;;5060627;28;20052;-69
2022/09/02 01:46:27;;;;;;;3.13;2.22;;;11.60;99.90;;;;;;5083108;28;20108;-69
2022/09/02 01:48:52;;;;;;;3.30;1.92;;;11.60;99.90;;;;;;5083887;28;20158;-69
2022/09/02 01:51:19;;;;;;;2.60;2.00;;;11.50;99.90;;;;;;5088450;28;20050;-69
2022/09/02 01:53:47;;;;;;;3.17;1.98;;;11.50;99.90;;;;;;5064329;28;20045;-69
2022/09/02 01:56:14;;;;;;;3.75;1.90;;;11.50;99.90;;;;;;5061966;28;20056;-69
2022/09/02 01:58:40;;;;;;;3.38;1.90;;;11.60;99.90;;;;;;5053611;28;20173;-69
2022/09/02 02:01:06;;;;;;;2.65;2.00;;;11.50;99.90;;;;;;5062682;28;20548;-69
2022/09/02 02:03:34;;;;;;;2.67;1.73;;;11.60;99.90;;;;;;5052261;28;20075;-69
2022/09/02 02:06:01;;;;;;;4.88;2.03;;;11.60;99.90;;;;;;5085988;28;20408;-69
2022/09/02 02:08:27;;;;;;;2.60;1.65;;;11.60;99.90;;;;;;5064900;28;20119;-69
2022/09/02 02:10:52;;;;;;;3.95;1.80;;;11.60;99.90;;;;;;5066420;28;20833;-69
2022/09/02 02:13:18;;;;;;;2.15;1.70;;;11.50;99.90;;;;;;5083459;28;20044;-69
2022/09/02 02:15:44;;;;;;;4.47;2.05;;;11.40;99.90;;;;;;5067450;28;20048;-69
2022/09/02 02:18:10;;;;;;;3.58;1.85;;;11.40;99.90;;;;;;5088297;28;20048;-68
2022/09/02 02:20:37;;;;;;;2.30;1.83;;;11.40;99.90;;;;;;5079705;28;20044;-69
2022/09/02 02:23:04;;;;;;;3.78;2.30;;;11.30;99.90;;;;;;5066351;28;20381;-69
2022/09/02 02:25:30;;;;;;;2.92;1.90;;;11.20;99.90;;;;;;5053493;28;20052;-68
2022/09/02 02:27:56;;;;;;;3.67;2.20;;;11.10;99.90;;;;;;5064198;28;20072;-69
2022/09/02 02:30:23;;;;;;;2.97;1.80;;;11.00;99.90;;;;;;5059413;28;20071;-69
2022/09/02 02:32:48;;;;;;;4.97;2.20;;;11.00;99.90;;;;;;5079716;28;20091;-69
2022/09/02 02:35:16;;;;;;;2.00;1.65;;;11.00;99.90;;;;;;5087989;28;20041;-70
2022/09/02 02:37:42;;;;;;;3.40;2.08;;;10.90;99.90;;;;;;5064049;28;20045;-68
2022/09/02 02:40:10;;;;;;;3.45;2.25;;;10.90;99.90;;;;;;5069439;28;20048;-69
2022/09/02 02:42:36;;;;;;;3.40;2.00;;;10.90;99.90;;;;;;5074379;28;20120;-69
2022/09/02 02:45:08;;;;;;;2.00;1.75;;;10.90;99.90;;;;;;5065621;28;20508;-69
2022/09/02 02:47:38;;;;;;;3.08;1.70;;;10.80;99.90;;;;;;5075231;28;20056;-69
2022/09/02 02:50:09;;;;;;;4.72;1.95;;;10.90;99.90;;;;;;5069780;28;20091;-69
2022/09/02 02:52:37;;;;;;;4.65;2.30;;;10.70;99.90;;;;;;5087466;28;20059;-69
2022/09/02 02:55:03;;;;;;;4.40;2.08;;;10.80;99.90;;;;;;5065793;28;20064;-69
2022/09/02 02:57:29;;;;;;;3.08;1.90;;;10.70;99.90;;;;;;5069679;28;20064;-69
2022/09/02 02:59:56;;;;;;;3.22;1.83;;;10.60;99.90;;;;;;5069393;28;20050;-69
2022/09/02 03:02:22;;;;;;;2.67;2.20;;;10.60;99.90;;;;;;5070058;28;20063;-68
2022/09/02 03:04:49;;;;;;;2.13;1.90;;;10.60;99.90;;;;;;5070855;28;20079;-69
2022/09/02 03:07:15;;;;;;;3.22;1.95;;;10.70;99.90;;;;;;5069227;28;20056;-69
2022/09/02 03:09:41;;;;;;;2.40;1.80;;;10.60;99.90;;;;;;5057120;28;20094;-69
2022/09/02 03:12:08;;;;;;;3.28;2.05;;;10.60;99.90;;;;;;5070288;28;20045;-69
2022/09/02 03:14:33;;;;;;;4.10;1.80;;;10.50;99.90;;;;;;5068342;28;20044;-69
2022/09/02 03:16:59;;;;;;;2.75;1.80;;;10.50;99.90;;;;;;5067702;28;20531;-69
2022/09/02 03:19:26;;;;;;;3.20;2.00;;;10.50;99.90;;;;;;5070633;28;20044;-68
2022/09/02 03:21:52;;;;;;;1.98;1.60;;;10.40;99.90;;;;;;5088550;28;20044;-68
2022/09/02 03:24:17;;;;;;;2.58;2.25;;;10.30;99.90;;;;;;5069446;28;20055;-68
2022/09/02 03:26:43;;;;;;;4.20;2.05;;;10.30;99.90;;;;;;5069870;28;20048;-69
2022/09/02 03:29:09;;;;;;;4.13;2.25;;;10.30;99.90;;;;;;5067220;28;20139;-69
2022/09/02 03:31:35;;;;;;;2.58;1.98;;;10.30;99.90;;;;;;5069566;28;20106;-69
2022/09/02 03:34:00;;;;;;;4.60;1.95;;;10.30;99.90;;;;;;5085526;28;20070;-69
2022/09/02 03:36:38;;;;;;;3.00;2.08;;;10.20;99.90;;;;;;5064814;28;20055;-69
2022/09/02 03:39:07;;;;;;;2.70;2.30;;;10.10;99.90;;;;;;5089834;28;20053;-69
2022/09/02 03:41:34;;;;;;;3.20;2.45;;;10.10;99.90;;;;;;5071650;28;20051;-69
2022/09/02 03:44:00;;;;;;;3.10;1.90;;;10.20;99.90;;;;;;5069391;28;20083;-69
2022/09/02 03:46:26;;;;;;;2.33;2.00;;;10.20;99.90;;;;;;5071410;28;20048;-69
2022/09/02 03:48:52;;;;;;;2.40;1.95;;;10.10;99.90;;;;;;5069826;28;20103;-69
2022/09/02 03:51:19;;;;;;;2.53;2.00;;;10.00;99.90;;;;;;5067703;28;20060;-69
2022/09/02 03:53:45;;;;;;;9.63;2.30;;;9.90;99.90;;;;;;5090005;28;20040;-68
2022/09/02 03:56:14;;;;;;;2.95;2.30;;;9.80;99.90;;;;;;5067019;28;20044;-68
2022/09/02 03:58:41;;;;;;;3.42;2.40;;;9.70;99.90;;;;;;5065145;28;20052;-69
2022/09/02 04:01:11;;;;;;;3.25;2.40;;;9.70;99.90;;;;;;5087928;28;20053;-69
2022/09/02 04:03:37;;;;;;;3.38;2.80;;;9.80;99.90;;;;;;5070224;28;20063;-69
2022/09/02 04:06:03;;;;;;;4.25;2.60;;;9.80;99.90;;;;;;5065766;28;20067;-68
2022/09/02 04:08:29;;;;;;;2.83;2.20;;;9.90;99.90;;;;;;5049049;28;20210;-69
2022/09/02 04:10:55;;;;;;;3.63;2.50;;;10.00;99.90;;;;;;5069167;28;20512;-69
2022/09/02 04:13:21;;;;;;;3.50;2.72;;;10.00;99.90;;;;;;5069183;28;20041;-68
2022/09/02 04:15:48;;;;;;;2.60;2.35;;;10.10;99.90;;;;;;5086988;28;20048;-69
2022/09/02 04:18:16;;;;;;;2.92;2.63;;;10.10;99.90;;;;;;5069798;28;20051;-69
2022/09/02 04:20:42;;;;;;;2.88;2.17;;;10.20;99.90;;;;;;5070334;28;20508;-68
2022/09/02 04:23:08;;;;;;;4.95;2.42;;;10.20;99.90;;;;;;5067853;28;20036;-68
2022/09/02 04:25:39;;;;;;;4.63;2.60;;;10.10;99.90;;;;;;5068926;28;20041;-68
2022/09/02 04:28:05;;;;;;;3.35;2.40;;;10.10;99.90;;;;;;5085710;28;20036;-69
2022/09/02 04:30:30;;;;;;;4.75;2.78;;;10.00;99.90;;;;;;5080322;28;20048;-69
2022/09/02 04:32:56;;;;;;;4.28;2.55;;;9.90;99.90;;;;;;5071807;28;20072;-69
2022/09/02 04:35:22;;;;;;;3.05;2.30;;;9.90;99.90;;;;;;5068608;28;20045;-69
2022/09/02 04:37:47;;;;;;;3.95;2.33;;;9.90;99.90;;;;;;5064600;28;20044;-69
2022/09/02 04:40:14;;;;;;;3.10;2.10;;;9.90;99.90;;;;;;5067539;28;20060;-68
2022/09/02 04:42:40;;;;;;;3.83;2.22;;;9.90;99.90;;;;;;5068396;28;20048;-68
2022/09/02 04:45:06;;;;;;;2.90;2.53;;;9.60;99.90;;;;;;5080708;28;20051;-69
2022/09/02 04:47:32;;;;;;;4.88;2.70;;;9.60;99.90;;;;;;5084168;28;20139;-69
2022/09/02 04:49:58;;;;;;;3.17;2.67;;;9.60;99.90;;;;;;5067629;28;20436;-69
2022/09/02 04:52:24;;;;;;;4.13;2.60;;;9.50;99.90;;;;;;5083265;28;20048;-68
2022/09/02 04:54:50;;;;;;;5.38;2.45;;;9.40;99.90;;;;;;5090656;28;20049;-68
2022/09/02 04:57:16;;;;;;;5.32;2.38;;;9.40;99.90;;;;;;5069265;28;20051;-68
2022/09/02 04:59:42;;;;;;;3.08;2.30;;;9.30;99.90;;;;;;5078684;28;20067;-68
2022/09/02 05:02:07;;;;;;;3.80;2.72;;;9.40;99.90;;;;;;5067558;28;20408;-68
2022/09/02 05:04:33;;;;;;;7.25;3.30;;;9.50;99.90;;;;;;5050648;28;20048;-69
2022/09/02 05:07:02;;;;;;;2.95;2.65;;;9.60;99.90;;;;;;5064666;28;20047;-68
2022/09/02 05:09:28;;;;;;;3.40;2.65;;;9.50;99.90;;;;;;5075639;28;20048;-68
2022/09/02 05:11:57;;;;;;;3.05;2.65;;;9.60;99.90;;;;;;5076000;28;20040;-68
2022/09/02 05:14:24;;;;;;;5.40;3.80;;;9.60;99.90;;;;;;5091283;28;20033;-68
2022/09/02 05:16:53;;;;;;;3.15;2.80;;;9.60;99.90;;;;;;5093803;28;20056;-68
2022/09/02 05:19:22;;;;;;;115.30;10.93;;;9.70;99.90;;;;;;5086262;28;20064;-67
2022/09/02 05:21:48;;;;;;;109.82;11.65;;;9.80;99.90;;;;;;5078450;28;20045;-67
2022/09/02 05:24:14;;;;;;;89.72;11.18;;;9.90;99.90;;;;;;5083148;28;20060;-68
2022/09/02 05:26:43;;;;;;;60.80;8.18;;;10.00;99.90;;;;;;5085495;28;20150;-71
2022/09/02 05:29:10;;;;;;;31.20;5.67;;;10.10;99.90;;;;;;5070873;28;20083;-66
2022/09/02 05:31:37;;;;;;;19.90;3.92;;;10.20;99.90;;;;;;5093433;28;20044;-66
2022/09/02 05:34:03;;;;;;;9.55;3.35;;;10.30;99.90;;;;;;5089262;28;20464;-66
2022/09/02 05:36:31;;;;;;;5.93;3.47;;;10.30;99.90;;;;;;5096461;28;20516;-66
2022/09/02 05:38:57;;;;;;;7.70;3.65;;;10.40;99.90;;;;;;5082551;28;20036;-66
2022/09/02 05:41:24;;;;;;;6.68;3.38;;;10.50;99.90;;;;;;5061478;28;20049;-66
2022/09/02 05:43:53;;;;;;;6.07;3.33;;;10.60;99.90;;;;;;5064188;28;20448;-66
2022/09/02 05:46:22;;;;;;;6.40;3.50;;;10.60;99.90;;;;;;5083388;28;20095;-66
2022/09/02 05:49:07;;;;;;;5.90;3.50;;;10.70;99.90;;;;;;5081416;28;20523;-66
2022/09/02 05:51:42;;;;;;;6.80;3.63;;;10.80;99.90;;;;;;5071508;28;20060;-66
2022/09/02 05:54:12;;;;;;;7.70;4.13;;;10.90;99.90;;;;;;5097874;28;20036;-68
2022/09/02 05:56:40;;;;;;;6.85;3.80;;;11.00;99.90;;;;;;5074331;28;20045;-67
2022/09/02 05:59:06;;;;;;;7.38;4.22;;;11.10;99.90;;;;;;5078542;28;20090;-67
2022/09/02 06:01:33;;;;;;;6.28;4.38;;;11.20;99.90;;;;;;5063237;28;20064;-69
2022/09/02 06:04:01;;;;;;;10.77;4.45;;;11.30;99.90;;;;;;5047292;28;20421;-67
2022/09/02 06:06:28;;;;;;;6.82;3.97;;;11.40;99.90;;;;;;5064615;28;20485;-67
2022/09/02 06:08:53;;;;;;;7.50;4.28;;;11.50;99.90;;;;;;5086187;28;20044;-66
2022/09/02 06:11:20;;;;;;;10.63;4.70;;;11.70;99.90;;;;;;5061466;28;20053;-67
2022/09/02 06:13:47;;;;;;;6.53;4.20;;;11.80;99.90;;;;;;5072011;28;20048;-67
2022/09/02 06:16:18;;;;;;;5.18;4.50;;;11.90;99.90;;;;;;5093758;28;20068;-66
2022/09/02 06:18:44;;;;;;;7.88;4.65;;;12.00;99.90;;;;;;5089334;28;20507;-67
2022/09/02 06:21:10;;;;;;;5.68;3.90;;;12.20;99.90;;;;;;5085400;28;20536;-67
2022/09/02 06:23:37;;;;;;;7.22;4.72;;;12.20;99.90;;;;;;5074120;28;20045;-67
2022/09/02 06:26:05;;;;;;;7.45;3.90;;;12.30;99.90;;;;;;5092366;28;20121;-67
2022/09/02 06:28:31;;;;;;;5.85;4.03;;;12.40;99.90;;;;;;5072031;28;20048;-67
2022/09/02 06:30:57;;;;;;;5.45;4.45;;;12.50;99.90;;;;;;5074593;28;20052;-67
2022/09/02 06:33:23;;;;;;;4.80;3.78;;;12.60;99.90;;;;;;5091656;28;20099;-67
2022/09/02 06:35:49;;;;;;;7.28;4.20;;;12.70;99.90;;;;;;5092539;28;20036;-67
2022/09/02 06:38:15;;;;;;;5.70;4.15;;;12.80;99.90;;;;;;5075338;28;20051;-67
2022/09/02 06:40:53;;;;;;;6.60;4.20;;;12.90;99.90;;;;;;5068693;28;20045;-67
2022/09/02 06:43:19;;;;;;;5.90;4.70;;;13.00;99.90;;;;;;5044888;28;20063;-67
2022/09/02 06:45:45;;;;;;;15.77;4.43;;;13.10;99.90;;;;;;5041108;28;20416;-69
2022/09/02 06:48:12;;;;;;;5.22;4.25;;;13.10;99.90;;;;;;5059868;28;20059;-67
2022/09/02 06:50:43;;;;;;;4.85;4.45;;;13.20;99.90;;;;;;5032133;28;20049;-67
2022/09/02 06:53:10;;;;;;;4.50;4.10;;;13.30;99.90;;;;;;5052809;28;20488;-67
2022/09/02 06:55:38;;;;;;;3.95;3.55;;;13.40;99.90;;;;;;5064365;28;20056;-67
2022/09/02 06:58:04;;;;;;;5.15;4.13;;;13.50;99.90;;;;;;5064311;28;20036;-68
2022/09/02 07:00:30;;;;;;;5.78;3.70;;;13.60;99.90;;;;;;5049950;28;20056;-67
2022/09/02 07:05:43;;;;;;;5.13;3.58;;;13.80;99.90;;;;;;5063478;28;20048;-68
2022/09/02 07:08:09;;;;;;;3.90;3.58;;;14.00;99.90;;;;;;5076713;28;20040;-67
2022/09/02 07:10:39;;;;;;;5.20;3.20;;;14.00;99.90;;;;;;5057170;28;20052;-67
2022/09/02 07:13:05;;;;;;;;;;;14.10;99.90;;;;;;5098490;28;20062;-67
2022/09/02 07:15:31;;;;;;;4.57;3.92;;;14.20;99.90;;;;;;5071720;28;19958;-67
2022/09/02 07:17:57;;;;;;;4.05;3.67;;;14.20;99.90;;;;;;5078765;28;20049;-67
2022/09/02 07:20:22;;;;;;;8.35;3.72;;;14.30;99.90;;;;;;5067588;28;20048;-67
2022/09/02 07:22:48;;;;;;;4.88;3.30;;;14.40;99.90;;;;;;5051208;28;20052;-68
2022/09/02 07:25:16;;;;;;;4.15;3.25;;;14.50;99.90;;;;;;5050530;28;20106;-66
2022/09/02 07:27:42;;;;;;;4.00;3.38;;;14.60;99.90;;;;;;5061873;28;20059;-66
2022/09/02 07:30:09;;;;;;;4.00;3.38;;;14.60;99.90;;;;;;5071070;28;20045;-66
2022/09/02 07:32:35;;;;;;;6.72;3.53;;;14.70;99.90;;;;;;5084296;28;20457;-66
2022/09/02 07:35:04;;;;;;;5.88;3.40;;;14.80;99.90;;;;;;5063677;28;20075;-66
2022/09/02 07:37:30;;;;;;;8.23;3.22;;;14.90;99.90;;;;;;5065605;28;20051;-66
2022/09/02 07:39:57;;;;;;;5.88;3.35;;;15.00;99.90;;;;;;5073446;28;20333;-66
2022/09/02 07:42:23;;;;;;;5.18;3.60;;;15.10;99.90;;;;;;5061189;28;20056;-67
2022/09/02 07:44:49;;;;;;;5.35;3.00;;;15.10;99.90;;;;;;5034036;28;20099;-67
2022/09/02 07:47:15;;;;;;;5.15;3.42;;;15.20;99.90;;;;;;5047990;28;20067;-66
2022/09/02 07:49:41;;;;;;;7.78;3.63;;;15.40;99.90;;;;;;5072159;28;20040;-67
2022/09/02 07:52:06;;;;;;;4.03;3.65;;;15.40;99.90;;;;;;5063967;28;20551;-66
2022/09/02 07:54:32;;;;;;;4.88;3.38;;;15.50;99.90;;;;;;5067273;28;20045;-67
2022/09/02 07:56:58;;;;;;;7.80;3.80;;;15.60;99.90;;;;;;5060385;28;20479;-66
2022/09/02 07:59:24;;;;;;;5.25;3.40;;;15.70;99.90;;;;;;5059126;28;20056;-67
2022/09/02 08:01:51;;;;;;;3.88;3.20;;;15.80;99.90;;;;;;5035006;28;20040;-66
2022/09/02 08:04:20;;;;;;;5.63;3.63;;;15.80;99.90;;;;;;5064385;28;20041;-66
2022/09/02 08:06:45;;;;;;;10.38;3.70;;;15.90;99.90;;;;;;5068676;28;20056;-66
2022/09/02 08:09:12;;;;;;;4.97;2.95;;;16.00;99.90;;;;;;5077161;28;20072;-67
2022/09/02 08:11:41;;;;;;;6.53;3.15;;;16.10;99.90;;;;;;5030718;28;20505;-67
2022/09/02 08:14:13;;;;;;;4.53;3.50;;;16.10;99.90;;;;;;5069963;28;20044;-67
2022/09/02 08:16:39;;;;;;;6.57;3.28;;;16.20;99.90;;;;;;5033719;28;20052;-67
2022/09/02 08:19:06;;;;;;;5.68;3.03;;;16.40;99.90;;;;;;5067587;28;20098;-67
2022/09/02 08:21:32;;;;;;;5.03;2.75;;;16.40;99.90;;;;;;5057151;28;20597;-66
2022/09/02 08:23:59;;;;;;;4.40;2.72;;;16.50;99.90;;;;;;5086068;28;20036;-66
2022/09/02 08:26:27;;;;;;;5.95;2.85;;;16.70;99.90;;;;;;5041459;28;20052;-66
2022/09/02 08:28:54;;;;;;;7.97;2.80;;;16.70;99.90;;;;;;5072255;28;20051;-67
2022/09/02 08:31:19;;;;;;;6.50;3.03;;;16.90;99.90;;;;;;5036804;28;20057;-66
2022/09/02 08:33:45;;;;;;;4.38;2.75;;;17.00;99.90;;;;;;5082888;28;20040;-67
2022/09/02 08:36:13;;;;;;;3.17;2.28;;;17.10;99.90;;;;;;5059514;28;20047;-66
2022/09/02 08:38:40;;;;;;;5.20;2.10;;;17.20;99.90;;;;;;5079366;28;20040;-67
2022/09/02 08:41:36;;;;;;;2.97;1.83;;;17.40;99.90;;;;;;5067521;28;20067;-66
2022/09/02 08:44:04;;;;;;;7.18;2.22;;;17.50;99.90;;;;;;5022422;28;20032;-66
2022/09/02 08:46:31;;;;;;;3.65;2.00;;;17.60;99.90;;;;;;5052762;28;20511;-67
2022/09/02 08:49:16;;;;;;;7.13;2.28;;;17.70;99.90;;;;;;5080187;28;20040;-67
2022/09/02 08:51:54;;;;;;;4.82;2.25;;;17.90;99.90;;;;;;5065891;28;20056;-66
2022/09/02 08:54:26;;;;;;;4.13;1.85;;;18.00;99.90;;;;;;5065822;28;20064;-67
2022/09/02 08:56:52;;;;;;;5.57;2.08;;;18.00;99.90;;;;;;5045822;28;20045;-67
2022/09/02 08:59:26;;;;;;;4.78;1.90;;;18.10;99.90;;;;;;5065504;28;20068;-67
2022/09/02 09:02:20;;;;;;;6.20;2.28;;;18.30;99.90;;;;;;5044469;28;20044;-67
2022/09/02 09:05:07;;;;;;;3.47;1.95;;;18.30;99.90;;;;;;5065010;28;20055;-67
2022/09/02 09:08:11;;;;;;;4.45;2.17;;;18.50;99.90;;;;;;5029418;28;20126;-66
2022/09/02 09:10:56;;;;;;;5.13;2.75;;;18.60;99.90;;;;;;5043395;28;20568;-67
2022/09/02 09:13:37;;;;;;;5.07;2.42;;;18.80;99.90;;;;;;5067744;28;20085;-67
2022/09/02 09:16:18;;;;;;;4.82;2.05;;;18.80;99.90;;;;;;5063329;28;20071;-66
2022/09/02 09:18:52;;;;;;;7.40;2.20;;;18.90;99.90;;;;;;5087333;28;20059;-67
2022/09/02 09:21:18;;;;;;;5.85;2.15;;;18.90;99.90;;;;;;5047619;28;20062;-67
2022/09/02 09:23:45;;;;;;;4.75;2.08;;;19.00;99.90;;;;;;5064960;28;20068;-67
2022/09/02 09:26:21;;;;;;;6.60;2.55;;;19.10;99.90;;;;;;5050295;28;20055;-67
2022/09/02 09:28:49;;;;;;;5.28;2.15;;;19.20;99.90;;;;;;5085930;28;20035;-65
2022/09/02 09:31:20;;;;;;;7.90;2.50;;;19.30;99.90;;;;;;5065894;28;20292;-67
2022/09/02 09:33:58;;;;;;;4.22;1.90;;;19.30;99.90;;;;;;5077228;28;20039;-67
2022/09/02 09:36:50;;;;;;;5.28;2.00;;;19.50;99.90;;;;;;5063528;28;20058;-67
2022/09/02 09:39:26;;;;;;;5.10;1.85;;;19.60;99.90;;;;;;5063622;28;20063;-68
2022/09/02 09:42:02;;;;;;;4.32;1.92;;;19.60;99.90;;;;;;5058795;28;20386;-67
2022/09/02 09:44:44;;;;;;;5.13;1.65;;;19.70;99.90;;;;;;5063898;28;20168;-67
2022/09/02 09:47:16;;;;;;;3.58;1.42;;;19.80;99.90;;;;;;5038064;28;20055;-67
2022/09/02 09:49:41;;;;;;;2.47;1.70;;;19.90;99.90;;;;;;5087997;28;20158;-67
2022/09/02 09:52:07;;;;;;;4.70;1.52;;;20.00;99.90;;;;;;5030127;28;20077;-67
2022/09/02 09:54:33;;;;;;;3.22;1.70;;;20.10;99.90;;;;;;5061503;28;20339;-66
2022/09/02 09:57:20;;;;;;;4.05;1.70;;;20.20;99.90;;;;;;5079326;28;20066;-67
2022/09/02 09:59:48;;;;;;;6.30;1.73;;;20.30;99.60;;;;;;5079633;28;20099;-67
2022/09/02 10:02:25;;;;;;;8.10;1.70;;;20.30;98.90;;;;;;5032984;28;20282;-66
2022/09/02 10:04:53;;;;;;;3.00;1.42;;;20.40;98.80;;;;;;5055338;28;20067;-66
2022/09/02 10:07:40;;;;;;;3.65;1.50;;;20.50;98.40;;;;;;5049785;28;20200;-67
2022/09/02 10:10:16;;;;;;;10.13;2.10;;;20.70;97.20;;;;;;5063955;28;20087;-67
2022/09/02 10:12:43;;;;;;;6.72;1.80;;;20.80;96.90;;;;;;5055994;28;20654;-67
2022/09/02 10:15:09;;;;;;;6.68;1.30;;;20.80;96.90;;;;;;5038359;28;20057;-67
2022/09/02 10:18:04;;;;;;;7.43;1.50;;;20.80;95.80;;;;;;5062117;28;20040;-67
2022/09/02 10:20:38;;;;;;;2.58;1.30;;;20.90;94.80;;;;;;5048053;28;20336;-67
2022/09/02 10:23:15;;;;;;;2.63;1.58;;;20.90;96.00;;;;;;5066906;28;20349;-67
2022/09/02 10:25:43;;;;;;;3.40;1.30;;;21.10;95.40;;;;;;5055517;28;20143;-68
2022/09/02 10:28:15;;;;;;;3.55;1.45;;;21.20;95.50;;;;;;5075181;28;20055;-65
2022/09/02 10:31:14;;;;;;;2.90;1.40;;;21.20;95.00;;;;;;5053250;28;20598;-65
2022/09/02 10:34:02;;;;;;;2.50;1.23;;;21.20;93.60;;;;;;5068100;28;20065;-66
2022/09/02 10:36:43;;;;;;;6.15;1.52;;;21.30;93.70;;;;;;5038171;28;20057;-65
2022/09/02 10:39:38;;;;;;;3.03;1.70;;;21.30;94.40;;;;;;5080895;28;20048;-66
2022/09/02 10:42:18;;;;;;;3.60;1.38;;;21.50;93.70;;;;;;5063559;28;20087;-65
2022/09/02 10:45:07;;;;;;;3.13;1.58;;;21.50;93.40;;;;;;5066183;28;20055;-66
2022/09/02 10:47:39;;;;;;;5.78;1.35;;;21.60;93.20;;;;;;5035492;28;20052;-65
2022/09/02 10:50:32;;;;;;;4.75;1.30;;;21.60;93.20;;;;;;5054119;28;20057;-68
2022/09/02 10:53:13;;;;;;;4.03;1.23;;;21.70;93.70;;;;;;5041718;28;20052;-66
2022/09/02 10:55:41;;;;;;;3.47;1.55;;;21.70;93.20;;;;;;5055018;28;20056;-66
2022/09/02 10:58:32;;;;;;;5.25;1.30;;;21.70;93.30;;;;;;5077803;28;20044;-66
2022/09/02 11:00:58;;;;;;;5.15;1.40;;;21.70;93.70;;;;;;5067560;28;20044;-66
2022/09/02 11:03:32;;;;;;;5.43;1.83;;;21.80;93.20;;;;;;5072555;28;20072;-66
2022/09/02 11:06:10;;;;;;;3.53;1.30;;;22.00;92.30;;;;;;5064644;28;20175;-66
2022/09/02 11:09:01;;;;;;;2.58;1.30;;;22.00;92.40;;;;;;5079092;28;20052;-66
2022/09/02 11:11:45;;;;;;;3.97;1.50;;;22.00;92.40;;;;;;5065592;28;20057;-66
2022/09/02 11:14:31;;;;;;;2.10;1.25;;;22.00;91.90;;;;;;5075762;28;20064;-66
2022/09/02 11:17:13;;;;;;;2.92;1.30;;;22.10;91.40;;;;;;5044690;28;20571;-66
2022/09/02 11:19:49;;;;;;;1.58;1.15;;;22.20;91.90;;;;;;5076880;28;20052;-66
2022/09/02 11:22:32;;;;;;;4.72;1.48;;;22.20;91.90;;;;;;5087260;28;20119;-66
2022/09/02 11:25:14;;;;;;;5.55;1.10;;;22.40;91.30;;;;;;5066088;28;20370;-65
2022/09/02 11:28:04;;;;;;;3.92;1.40;;;22.50;90.90;;;;;;5037276;28;20044;-66
2022/09/02 11:30:52;;;;;;;3.25;1.13;;;22.60;90.90;;;;;;5055155;28;20128;-66
2022/09/02 11:33:54;;;;;;;6.85;1.88;;;22.70;91.40;;;;;;5063904;28;20052;-66
2022/09/02 11:36:20;;;;;;;5.32;1.10;;;22.80;90.70;;;;;;5052068;28;20048;-66
2022/09/02 11:39:03;;;;;;;4.03;1.30;;;22.80;91.00;;;;;;5055581;28;20044;-66
2022/09/02 11:42:09;;;;;;;3.10;1.08;;;22.90;90.00;;;;;;5047759;28;20072;-66
2022/09/02 11:44:40;;;;;;;2.15;1.33;;;23.00;87.80;;;;;;5038386;28;20142;-65
2022/09/02 11:47:30;;;;;;;3.58;1.23;;;22.90;88.70;;;;;;5065953;28;20044;-69
2022/09/02 11:50:14;;;;;;;4.07;1.38;;;22.90;89.30;;;;;;5060803;28;20055;-67
2022/09/02 11:52:56;;;;;;;2.95;1.10;;;23.00;90.10;;;;;;5036695;28;20048;-67
2022/09/02 11:55:33;;;;;;;2.63;1.20;;;23.10;89.30;;;;;;5070428;28;20044;-68
2022/09/02 11:58:00;;;;;;;1.45;1.20;;;23.10;89.10;;;;;;5079067;28;20048;-67
2022/09/02 12:00:54;;;;;;;4.80;1.35;;;23.20;89.60;;;;;;5063839;28;20576;-68
2022/09/02 12:03:28;;;;;;;1.92;1.00;;;23.30;89.60;;;;;;5079030;28;20165;-68
2022/09/02 12:06:09;;;;;;;3.60;1.25;;;23.30;89.00;;;;;;5070232;28;20052;-68
2022/09/02 12:08:41;;;;;;;3.00;1.23;;;23.40;86.70;;;;;;5050361;28;20603;-69
2022/09/02 12:11:10;;;;;;;3.40;1.10;;;23.40;88.00;;;;;;5050513;28;20060;-68
2022/09/02 12:13:39;;;;;;;3.38;1.40;;;23.50;87.10;;;;;;5064574;28;20058;-67
2022/09/02 12:16:31;;;;;;;2.55;1.25;;;23.50;87.30;;;;;;5049994;28;20057;-66
2022/09/02 12:18:57;;;;;;;3.83;1.45;;;23.60;87.90;;;;;;5043798;28;20082;-66
2022/09/02 12:21:28;;;;;;;4.47;1.10;;;23.60;86.70;;;;;;5062511;28;20048;-66
2022/09/02 12:23:54;;;;;;;4.75;1.65;;;23.70;86.90;;;;;;5089793;28;20059;-66
2022/09/02 12:26:24;;;;;;;2.17;1.13;;;23.70;87.00;;;;;;5039032;28;20041;-70
2022/09/02 12:28:52;;;;;;;2.42;1.38;;;23.80;86.50;;;;;;5055392;28;20053;-68
2022/09/02 12:31:39;;;;;;;1.70;1.17;;;23.90;85.50;;;;;;5046254;28;20206;-67
2022/09/02 12:34:20;;;;;;;3.72;1.65;;;24.00;85.40;;;;;;5063312;28;20087;-66
2022/09/02 12:36:52;;;;;;;3.53;1.30;;;24.00;85.00;;;;;;5052672;28;20040;-67
2022/09/02 12:39:26;;;;;;;2.78;1.30;;;24.10;83.20;;;;;;5040294;28;20072;-67
2022/09/02 12:42:16;;;;;;;3.50;1.38;;;24.10;83.90;;;;;;5059014;28;20120;-66
2022/09/02 12:45:21;;;;;;;2.45;1.30;;;24.10;85.70;;;;;;5022138;28;20052;-66
2022/09/02 12:48:26;;;;;;;3.33;1.40;;;24.20;84.90;;;;;;5037240;28;20044;-66
2022/09/02 12:50:56;;;;;;;2.75;1.38;;;24.40;84.30;;;;;;5013319;28;20050;-66
2022/09/02 12:53:22;;;;;;;3.83;1.30;;;24.50;83.60;;;;;;5023564;28;20077;-66
2022/09/02 12:56:03;;;;;;;3.75;1.48;;;24.50;83.20;;;;;;5006526;28;20061;-66
2022/09/02 12:58:43;;;;;;;2.58;1.30;;;24.80;80.40;;;;;;5022754;28;20049;-67
2022/09/02 13:01:24;;;;;;;5.80;1.48;;;24.80;81.90;;;;;;5024144;28;20096;-67
2022/09/02 13:04:17;;;;;;;4.00;1.40;;;24.80;82.10;;;;;;4994591;28;20047;-66
2022/09/02 13:07:16;;;;;;;2.97;1.63;;;24.90;90.00;;;;;;5001820;28;20081;-66
2022/09/02 13:10:05;;;;;;;3.10;1.50;;;24.90;86.90;;;;;;4997565;28;20077;-66